Time;durP1;ratioP1;P1;durP2;ratioP2;P2;SDS_P1;SDS_P2;PMS_P1;PMS_P2;Temp;Humidity;BMP_temperature;BMP_pressure;BME280_temperature;BME280_humidity;BME280_pressure;Samples;Min_cycle;Max_cycle;Signal;HPM_P1;HPM_P2
2023/12/09 00:00:41;;;;;;;49.60;25.00;;;;;;;-3.76;92.86;100481.42;101512;1260;1003232;-68
2023/12/09 00:03:27;;;;;;;48.20;23.90;;;;;;;-3.77;93.26;100479.33;103208;1260;139017;-69
2023/12/09 00:05:54;;;;;;;45.60;22.40;;;;;;;-3.77;93.01;100479.02;102402;1257;1003590;-69
2023/12/09 00:08:21;;;;;;;47.30;23.10;;;;;;;-3.75;93.19;100478.41;103080;1260;139108;-69
2023/12/09 00:10:48;;;;;;;46.80;24.00;;;;;;;-3.71;93.14;100468.83;103149;1257;107019;-71
2023/12/09 00:13:15;;;;;;;49.00;25.70;;;;;;;-3.67;93.09;100469.96;103158;1257;98493;-70
2023/12/09 00:15:42;;;;;;;51.70;25.00;;;;;;;-3.66;93.18;100466.58;103084;1260;138645;-69
2023/12/09 00:18:10;;;;;;;52.60;26.30;;;;;;;-3.69;93.10;100455.45;102421;1256;1002883;-70
2023/12/09 00:20:37;;;;;;;50.80;24.50;;;;;;;-3.71;93.27;100452.52;102240;1257;1003747;-69
2023/12/09 00:23:04;;;;;;;47.60;22.60;;;;;;;-3.71;93.47;100450.13;102357;1259;1002924;-69
2023/12/09 00:25:31;;;;;;;47.50;24.50;;;;;;;-3.71;93.48;100450.14;102434;1257;1002654;-69
2023/12/09 00:27:58;;;;;;;45.60;22.20;;;;;;;-3.71;93.67;100445.54;103055;1256;139023;-69
2023/12/09 00:30:24;;;;;;;45.80;22.70;;;;;;;-3.70;93.87;100449.13;103046;1256;107185;-70
2023/12/09 00:32:51;;;;;;;45.40;22.60;;;;;;;-3.68;93.73;100447.14;103062;1260;140568;-70
2023/12/09 00:35:19;;;;;;;43.70;22.30;;;;;;;-3.65;93.69;100448.42;103177;1257;107348;-71
2023/12/09 00:37:45;;;;;;;45.20;24.30;;;;;;;-3.61;93.51;100446.80;103093;1260;138401;-68
2023/12/09 00:40:14;;;;;;;52.00;25.50;;;;;;;-3.59;93.81;100439.08;102406;1257;1002889;-70
2023/12/09 00:42:41;;;;;;;49.40;24.90;;;;;;;-3.58;93.88;100440.65;103180;1256;1002681;-71
2023/12/09 00:45:10;;;;;;;50.50;24.40;;;;;;;-3.59;93.90;100437.35;103044;1260;138585;-69
2023/12/09 00:47:37;;;;;;;50.30;24.00;;;;;;;-3.62;93.97;100434.73;102385;1258;1004028;-69
2023/12/09 00:50:05;;;;;;;44.60;21.90;;;;;;;-3.57;93.92;100445.77;102259;1255;1003796;-70
2023/12/09 00:52:32;;;;;;;44.50;22.30;;;;;;;-3.57;94.51;100440.67;102761;1257;1003666;-70
2023/12/09 00:54:59;;;;;;;46.30;22.10;;;;;;;-3.55;94.19;100439.54;102386;1256;1003091;-70
2023/12/09 00:57:26;;;;;;;45.40;22.30;;;;;;;-3.54;94.33;100430.38;103306;1260;139471;-71
2023/12/09 00:59:53;;;;;;;47.60;23.50;;;;;;;-3.49;94.43;100430.02;101622;1254;1002941;-69
2023/12/09 01:02:20;;;;;;;44.50;22.80;;;;;;;-3.46;94.30;100430.08;103012;1259;138583;-70
2023/12/09 01:04:47;;;;;;;45.20;24.00;;;;;;;-3.43;94.27;100426.59;103022;1257;111578;-70
2023/12/09 01:07:14;;;;;;;48.80;23.70;;;;;;;-3.41;94.07;100433.97;102318;1257;1003830;-71
2023/12/09 01:09:41;;;;;;;51.40;24.90;;;;;;;-3.44;94.22;100426.90;102970;1260;138205;-69
2023/12/09 01:12:09;;;;;;;49.90;23.40;;;;;;;-3.47;94.34;100428.19;102992;1259;107729;-69
2023/12/09 01:14:35;;;;;;;51.90;24.20;;;;;;;-3.48;94.24;100428.65;102180;1256;1005538;-69
2023/12/09 01:17:02;;;;;;;53.60;25.90;;;;;;;-3.47;94.28;100425.63;103085;1257;111923;-69
2023/12/09 01:19:29;;;;;;;53.00;26.70;;;;;;;-3.43;94.40;100417.56;102361;1256;1003752;-70
2023/12/09 01:21:56;;;;;;;57.80;27.20;;;;;;;-3.42;94.32;100409.45;102135;1259;1003659;-70
2023/12/09 01:24:23;;;;;;;59.90;30.50;;;;;;;-3.38;94.14;100409.58;103072;1257;107988;-70
2023/12/09 01:26:49;;;;;;;60.70;31.60;;;;;;;-3.37;94.10;100409.09;103163;1256;138141;-70
2023/12/09 01:29:16;;;;;;;65.30;31.90;;;;;;;-3.35;93.84;100411.35;103240;1257;111021;-69
2023/12/09 01:31:43;;;;;;;64.40;32.60;;;;;;;-3.33;94.13;100413.77;103110;1260;108418;-69
2023/12/09 01:34:12;;;;;;;67.70;32.20;;;;;;;-3.34;93.87;100416.64;103576;1255;97876;-69
2023/12/09 01:36:39;;;;;;;68.20;31.60;;;;;;;-3.32;93.94;100413.44;103436;1256;107675;-69
2023/12/09 01:39:05;;;;;;;66.90;32.10;;;;;;;-3.36;93.90;100403.84;103101;1257;138852;-69
2023/12/09 01:41:32;;;;;;;65.50;29.40;;;;;;;-3.37;93.52;100413.68;102743;1256;1002996;-68
2023/12/09 01:43:59;;;;;;;66.30;29.70;;;;;;;-3.40;93.48;100413.93;101509;1260;1003772;-69
2023/12/09 01:46:26;;;;;;;64.30;30.30;;;;;;;-3.41;93.63;100405.92;103497;1260;97803;-68
2023/12/09 01:48:54;;;;;;;64.40;31.00;;;;;;;-3.39;94.00;100409.38;103186;1260;107949;-68
2023/12/09 01:51:21;;;;;;;72.40;33.30;;;;;;;-3.32;94.02;100417.70;103081;1256;138847;-69
2023/12/09 01:53:51;;;;;;;73.90;33.20;;;;;;;-3.29;93.86;100412.66;103085;1260;111312;-69
2023/12/09 01:56:21;;;;;;;76.80;34.80;;;;;;;-3.28;93.78;100411.52;103384;1257;139673;-71
2023/12/09 01:58:48;;;;;;;79.00;35.00;;;;;;;-3.25;93.68;100409.73;103756;1256;98213;-69
2023/12/09 02:01:16;;;;;;;81.00;37.50;;;;;;;-3.24;93.73;100414.16;102370;1257;1002986;-69
2023/12/09 02:03:44;;;;;;;80.70;36.60;;;;;;;-3.25;93.65;100417.02;103234;1256;138785;-69
2023/12/09 02:06:11;;;;;;;76.90;33.80;;;;;;;-3.27;93.55;100415.78;102369;1260;1003007;-69
2023/12/09 02:08:39;;;;;;;80.50;35.30;;;;;;;-3.28;93.71;100415.09;103137;1258;140782;-71
2023/12/09 02:11:16;;;;;;;75.90;33.80;;;;;;;-3.31;93.70;100404.13;103220;1257;98536;-70
2023/12/09 02:13:52;;;;;;;76.10;33.80;;;;;;;-3.33;93.56;100402.72;103332;1260;107593;-71
2023/12/09 02:16:21;;;;;;;;;;;;;;;-3.34;93.81;100404.05;103477;1256;97822;-70
2023/12/09 02:18:49;;;;;;;75.20;33.90;;;;;;;-3.37;94.12;100402.46;103658;1256;111638;-69
2023/12/09 02:21:16;;;;;;;79.40;34.70;;;;;;;-3.40;93.95;100396.23;103107;1257;139439;-69
2023/12/09 02:23:43;;;;;;;79.50;33.90;;;;;;;-3.45;94.35;100392.02;103706;1257;98348;-70
2023/12/09 02:26:17;;;;;;;77.40;33.70;;;;;;;-3.49;94.36;100385.30;102932;1256;140127;-70
2023/12/09 02:28:51;;;;;;;70.00;31.80;;;;;;;-3.51;94.47;100383.04;102811;1260;1002439;-71
2023/12/09 02:31:24;;;;;;;76.20;33.90;;;;;;;-3.51;94.67;100386.43;103449;1256;111060;-70
2023/12/09 02:33:51;;;;;;;82.90;36.00;;;;;;;-3.50;94.51;100396.31;102855;1256;138052;-71
2023/12/09 02:36:22;;;;;;;84.40;36.50;;;;;;;-3.51;94.87;100393.91;102968;1259;98340;-72
2023/12/09 02:38:50;;;;;;;76.30;33.40;;;;;;;-3.55;94.76;100385.14;102804;1256;1002922;-71
2023/12/09 02:41:18;;;;;;;77.90;32.80;;;;;;;-3.58;94.80;100381.32;102428;1261;1002608;-70
2023/12/09 02:43:46;;;;;;;75.70;32.00;;;;;;;-3.61;95.03;100384.27;103004;1260;111328;-70
2023/12/09 02:46:15;;;;;;;69.40;31.00;;;;;;;-3.62;95.03;100385.42;103071;1257;107857;-70
2023/12/09 02:48:42;;;;;;;74.30;31.20;;;;;;;-3.65;95.07;100391.50;103256;1256;97848;-70
2023/12/09 02:51:09;;;;;;;78.00;31.20;;;;;;;-3.63;95.23;100387.96;103704;1256;140520;-70
2023/12/09 02:53:36;;;;;;;78.90;33.90;;;;;;;-3.59;95.63;100382.13;102877;1256;1003049;-69
2023/12/09 02:56:07;;;;;;;74.90;33.40;;;;;;;-3.57;95.50;100380.31;102977;1260;139538;-70
2023/12/09 02:58:33;;;;;;;72.60;31.80;;;;;;;-3.52;95.43;100387.77;103371;1256;107719;-70
2023/12/09 03:01:00;;;;;;;87.00;34.60;;;;;;;-3.51;95.39;100392.38;103135;1257;97800;-70
2023/12/09 03:03:27;;;;;;;82.80;34.60;;;;;;;-3.51;94.90;100395.10;103166;1255;1002775;-70
2023/12/09 03:05:54;;;;;;;78.00;33.90;;;;;;;-3.50;95.22;100398.52;104379;1255;96233;-70
2023/12/09 03:08:21;;;;;;;78.50;33.00;;;;;;;-3.49;95.11;100398.54;102249;1259;1003515;-69
2023/12/09 03:10:48;;;;;;;82.60;33.50;;;;;;;-3.51;95.15;100398.67;103084;1260;107432;-70
2023/12/09 03:13:15;;;;;;;83.50;33.10;;;;;;;-3.53;95.32;100393.34;103271;1259;97718;-71
2023/12/09 03:15:42;;;;;;;75.20;31.00;;;;;;;-3.53;95.18;100389.42;103208;1256;139710;-70
2023/12/09 03:18:08;;;;;;;72.10;32.60;;;;;;;-3.51;95.22;100385.91;102991;1256;97824;-70
2023/12/09 03:20:36;;;;;;;77.20;32.70;;;;;;;-3.45;95.53;100388.27;102510;1257;1002694;-70
2023/12/09 03:23:02;;;;;;;77.80;32.90;;;;;;;-3.43;95.83;100388.33;103588;1256;107562;-72
2023/12/09 03:25:29;;;;;;;80.50;33.30;;;;;;;-3.43;95.49;100385.61;103815;1258;97721;-70
2023/12/09 03:27:56;;;;;;;84.10;35.50;;;;;;;-3.41;95.59;100389.92;103219;1257;138809;-72
2023/12/09 03:30:26;;;;;;;84.40;34.40;;;;;;;-3.38;95.35;100387.12;103048;1257;97812;-71
2023/12/09 03:32:53;;;;;;;76.80;32.70;;;;;;;-3.36;95.46;100385.65;103209;1259;137889;-72
2023/12/09 03:35:21;;;;;;;79.90;31.40;;;;;;;-3.37;95.58;100386.97;104078;1255;107439;-71
2023/12/09 03:37:48;;;;;;;73.10;31.80;;;;;;;-3.39;95.57;100386.08;103045;1257;97829;-71
2023/12/09 03:40:15;;;;;;;66.80;29.00;;;;;;;-3.41;95.51;100380.92;101703;1257;1003492;-69
2023/12/09 03:42:42;;;;;;;79.00;30.70;;;;;;;-3.38;95.65;100382.36;104257;1256;96343;-69
2023/12/09 03:45:10;;;;;;;77.00;33.10;;;;;;;-3.38;95.26;100377.60;103694;1256;138341;-71
2023/12/09 03:47:37;;;;;;;82.10;32.70;;;;;;;-3.33;95.74;100376.54;103120;1263;107860;-70
2023/12/09 03:50:05;;;;;;;78.30;31.90;;;;;;;-3.29;95.60;100385.48;102667;1259;1002504;-71
2023/12/09 03:52:32;;;;;;;83.10;33.70;;;;;;;-3.29;95.48;100382.06;103736;1257;106784;-72
2023/12/09 03:54:59;;;;;;;72.80;31.50;;;;;;;-3.32;95.20;100380.98;103765;1257;95734;-72
2023/12/09 03:57:26;;;;;;;76.70;32.70;;;;;;;-3.33;95.35;100385.73;103038;1256;1002260;-72
2023/12/09 03:59:53;;;;;;;77.70;32.30;;;;;;;-3.38;95.34;100385.61;102639;1257;1003083;-71
2023/12/09 04:02:20;;;;;;;77.60;32.80;;;;;;;-3.37;95.33;100386.98;103781;1255;139268;-71
2023/12/09 04:04:47;;;;;;;79.60;31.60;;;;;;;-3.33;95.69;100384.86;103362;1257;106669;-72
2023/12/09 04:07:14;;;;;;;71.50;29.70;;;;;;;-3.33;95.69;100383.85;103043;1257;97888;-71
2023/12/09 04:09:42;;;;;;;76.50;29.60;;;;;;;-3.32;95.85;100384.73;103388;1257;138731;-72
2023/12/09 04:12:09;;;;;;;73.40;30.80;;;;;;;-3.24;95.52;100386.61;103539;1256;107129;-72
2023/12/09 04:14:36;;;;;;;73.00;31.10;;;;;;;-3.21;95.60;100389.79;103114;1262;138229;-72
2023/12/09 04:17:03;;;;;;;81.60;32.80;;;;;;;-3.20;95.55;100386.56;103362;1259;108009;-71
2023/12/09 04:19:30;;;;;;;81.40;33.50;;;;;;;-3.22;95.60;100387.36;103190;1258;97829;-71
2023/12/09 04:21:57;;;;;;;80.40;32.90;;;;;;;-3.29;95.15;100392.11;102881;1260;137952;-71
2023/12/09 04:24:23;;;;;;;82.00;32.50;;;;;;;-3.32;95.49;100390.50;103134;1260;107019;-71
2023/12/09 04:26:50;;;;;;;74.40;31.20;;;;;;;-3.34;95.63;100389.59;103171;1256;139490;-71
2023/12/09 04:29:17;;;;;;;71.10;31.60;;;;;;;-3.35;95.74;100384.14;103003;1256;107132;-73
2023/12/09 04:31:44;;;;;;;72.10;30.00;;;;;;;-3.37;95.90;100381.55;103134;1260;97616;-72
2023/12/09 04:34:11;;;;;;;78.50;31.50;;;;;;;-3.35;96.07;100372.42;103008;1256;250018;-72
2023/12/09 04:36:38;;;;;;;74.70;32.10;;;;;;;-3.29;96.03;100366.77;103484;1256;108221;-72
2023/12/09 04:39:07;;;;;;;83.60;33.90;;;;;;;-3.24;96.21;100361.61;102778;1258;1003331;-71
2023/12/09 04:41:34;;;;;;;85.10;34.10;;;;;;;-3.20;96.41;100360.90;103242;1257;108257;-71
2023/12/09 04:44:01;;;;;;;81.70;33.80;;;;;;;-3.20;96.16;100356.31;103098;1259;139975;-71
2023/12/09 04:46:28;;;;;;;76.40;30.20;;;;;;;-3.25;95.96;100354.29;101633;1256;1002899;-72
2023/12/09 04:48:56;;;;;;;78.30;30.30;;;;;;;-3.30;95.79;100347.02;103025;1256;107989;-71
2023/12/09 04:51:24;;;;;;;73.30;29.50;;;;;;;-3.34;96.06;100341.66;102246;1260;1003726;-72
2023/12/09 04:53:51;;;;;;;73.80;30.60;;;;;;;-3.35;96.23;100346.59;103029;1256;107443;-72
2023/12/09 04:56:18;;;;;;;73.00;29.90;;;;;;;-3.35;96.56;100350.15;102733;1258;1003231;-70
2023/12/09 04:58:46;;;;;;;71.40;31.30;;;;;;;-3.32;96.22;100350.55;103223;1259;112088;-71
2023/12/09 05:01:12;;;;;;;80.60;31.80;;;;;;;-3.31;96.07;100339.52;102245;1256;1002963;-71
2023/12/09 05:03:57;;;;;;;84.50;33.60;;;;;;;-3.27;96.33;100333.15;99830;1295;635959;-71
2023/12/09 05:06:24;;;;;;;80.80;33.20;;;;;;;-3.27;96.16;100327.52;102658;1263;94498;-70
2023/12/09 05:08:51;;;;;;;79.30;32.00;;;;;;;-3.28;96.08;100326.98;102602;1266;136829;-70
2023/12/09 05:11:20;;;;;;;74.60;31.20;;;;;;;-3.35;96.02;100328.86;101927;1266;1003754;-70
2023/12/09 05:13:49;;;;;;;62.30;28.60;;;;;;;-3.39;96.02;100331.86;101921;1264;1003376;-71
2023/12/09 05:16:16;;;;;;;72.10;29.40;;;;;;;-3.40;96.46;100327.07;102585;1263;107822;-71
2023/12/09 05:18:43;;;;;;;70.70;29.50;;;;;;;-3.40;96.49;100324.70;101070;1266;1003197;-70
2023/12/09 05:21:13;;;;;;;68.90;30.20;;;;;;;-3.39;96.82;100327.77;102688;1263;138060;-71
2023/12/09 05:23:39;;;;;;;72.40;30.50;;;;;;;-3.38;96.40;100328.46;103394;1254;94934;-71
2023/12/09 05:26:07;;;;;;;79.50;32.60;;;;;;;-3.40;96.43;100326.21;102526;1257;1002941;-70
2023/12/09 05:28:34;;;;;;;84.80;33.50;;;;;;;-3.44;96.46;100327.63;103479;1254;107768;-69
2023/12/09 05:31:01;;;;;;;76.60;30.20;;;;;;;-3.50;96.38;100326.45;103321;1254;95627;-71
2023/12/09 05:33:27;;;;;;;71.10;29.80;;;;;;;-3.50;96.52;100338.52;103198;1255;137970;-71
2023/12/09 05:35:54;;;;;;;69.10;28.50;;;;;;;-3.51;96.76;100332.38;102627;1255;1003278;-71
2023/12/09 05:38:21;;;;;;;72.10;30.30;;;;;;;-3.49;96.92;100333.10;102607;1254;1002961;-71
2023/12/09 05:40:48;;;;;;;77.00;29.60;;;;;;;-3.50;96.85;100328.66;103335;1254;109185;-71
2023/12/09 05:43:15;;;;;;;67.80;29.90;;;;;;;-3.50;96.85;100328.15;103238;1256;97308;-71
2023/12/09 05:45:42;;;;;;;64.40;28.60;;;;;;;-3.48;97.21;100333.13;103086;1256;138566;-72
2023/12/09 05:48:09;;;;;;;72.10;30.10;;;;;;;-3.46;97.10;100322.64;102543;1256;1002941;-71
2023/12/09 05:50:36;;;;;;;73.60;30.50;;;;;;;-3.44;97.36;100321.84;103359;1257;137523;-72
2023/12/09 05:53:03;;;;;;;77.50;32.00;;;;;;;-3.43;97.17;100319.30;102556;1254;1003376;-70
2023/12/09 05:55:29;;;;;;;74.80;31.20;;;;;;;-3.45;97.19;100327.75;103457;1251;95211;-69
2023/12/09 05:57:56;;;;;;;71.30;31.00;;;;;;;-3.46;97.33;100322.96;103224;1256;137833;-70
2023/12/09 06:00:23;;;;;;;62.00;28.40;;;;;;;-3.46;97.19;100325.20;103420;1254;95138;-70
2023/12/09 06:02:50;;;;;;;72.10;30.00;;;;;;;-3.45;97.19;100320.97;102511;1256;1003271;-70
2023/12/09 06:05:17;;;;;;;69.40;28.90;;;;;;;-3.44;97.22;100316.40;102426;1259;1003709;-71
2023/12/09 06:07:46;;;;;;;65.40;29.20;;;;;;;-3.40;97.54;100313.63;102483;1256;1003322;-70
2023/12/09 06:10:14;;;;;;;71.90;31.30;;;;;;;-3.40;97.37;100306.83;101892;1254;1003412;-70
2023/12/09 06:12:41;;;;;;;77.10;30.60;;;;;;;-3.36;97.34;100308.46;102574;1257;1002911;-72
2023/12/09 06:15:09;;;;;;;79.70;33.40;;;;;;;-3.37;97.23;100305.21;103246;1254;137645;-73
2023/12/09 06:17:36;;;;;;;77.40;29.60;;;;;;;-3.39;97.27;100306.01;102943;1254;1003265;-76
2023/12/09 06:20:08;;;;;;;67.40;27.90;;;;;;;-3.42;97.34;100309.98;102448;1254;1003357;-72
2023/12/09 06:22:35;;;;;;;67.90;28.40;;;;;;;-3.44;97.47;100305.02;104690;1253;107615;-71
2023/12/09 06:25:02;;;;;;;68.30;27.20;;;;;;;-3.45;97.40;100301.08;103518;1254;95098;-71
2023/12/09 06:27:29;;;;;;;61.10;27.50;;;;;;;-3.43;98.07;100305.36;103245;1255;138237;-72
2023/12/09 06:29:56;;;;;;;66.30;29.40;;;;;;;-3.40;97.50;100299.35;103368;1253;107272;-71
2023/12/09 06:32:22;;;;;;;73.10;30.90;;;;;;;-3.36;97.64;100303.02;103245;1258;138197;-72
2023/12/09 06:34:49;;;;;;;72.40;31.70;;;;;;;-3.36;97.78;100297.93;103349;1253;107707;-78
2023/12/09 06:37:16;;;;;;;67.90;30.10;;;;;;;-3.37;97.69;100289.90;103336;1259;95112;-73
2023/12/09 06:39:43;;;;;;;59.00;28.20;;;;;;;-3.39;97.94;100291.55;103134;1253;137827;-71
2023/12/09 06:42:10;;;;;;;63.10;28.50;;;;;;;-3.39;97.74;100292.23;102459;1257;1003460;-72
2023/12/09 06:44:37;;;;;;;68.20;28.80;;;;;;;-3.38;97.76;100297.20;103082;1260;138899;-72
2023/12/09 06:47:04;;;;;;;56.70;25.80;;;;;;;-3.37;98.19;100290.25;102551;1257;1003319;-72
2023/12/09 06:49:33;;;;;;;73.60;31.10;;;;;;;-3.35;97.95;100294.38;103391;1257;95028;-71
2023/12/09 06:52:00;;;;;;;70.30;30.50;;;;;;;-3.32;97.96;100295.44;103188;1257;138937;-70
2023/12/09 06:54:27;;;;;;;67.60;30.50;;;;;;;-3.32;97.92;100292.58;103317;1256;107630;-71
2023/12/09 06:56:56;;;;;;;72.30;29.00;;;;;;;-3.36;97.81;100285.85;103203;1255;137336;-70
2023/12/09 06:59:23;;;;;;;67.70;28.70;;;;;;;-3.33;98.11;100285.23;103198;1255;107442;-69
2023/12/09 07:01:50;;;;;;;61.60;26.00;;;;;;;-3.32;97.92;100281.17;103258;1260;95173;-69
2023/12/09 07:04:17;;;;;;;68.50;27.50;;;;;;;-3.31;97.89;100282.06;103222;1259;108695;-70
2023/12/09 07:06:44;;;;;;;68.60;28.80;;;;;;;-3.27;97.86;100288.27;103200;1259;107682;-73
2023/12/09 07:09:11;;;;;;;66.20;28.90;;;;;;;-3.21;98.09;100297.95;103148;1260;138020;-73
2023/12/09 07:11:38;;;;;;;72.00;31.40;;;;;;;-3.18;97.83;100291.55;103319;1260;108059;-71
2023/12/09 07:14:05;;;;;;;74.20;31.30;;;;;;;-3.17;97.73;100288.70;103162;1256;138020;-73
2023/12/09 07:16:32;;;;;;;70.20;29.90;;;;;;;-3.19;98.04;100291.70;103260;1256;107750;-72
2023/12/09 07:18:59;;;;;;;68.10;30.20;;;;;;;-3.23;97.77;100286.33;103298;1259;106616;-76
2023/12/09 07:21:28;;;;;;;65.10;29.10;;;;;;;-3.23;98.19;100285.63;101671;1260;1016590;-77
2023/12/09 07:23:56;;;;;;;68.00;28.50;;;;;;;-3.25;98.22;100294.27;103273;1259;106830;-78
2023/12/09 07:26:23;;;;;;;67.10;28.10;;;;;;;-3.24;98.37;100285.28;103109;1253;138327;-78
2023/12/09 07:28:50;;;;;;;64.00;28.80;;;;;;;-3.19;98.29;100295.78;103187;1258;109288;-78
2023/12/09 07:31:17;;;;;;;65.00;30.00;;;;;;;-3.19;98.16;100296.81;102349;1257;1004898;-78
2023/12/09 07:33:44;;;;;;;70.80;31.30;;;;;;;-3.18;97.92;100296.50;103035;1260;137884;-77
2023/12/09 07:36:12;;;;;;;67.70;29.40;;;;;;;-3.19;98.27;100304.81;102970;1260;106701;-75
2023/12/09 07:38:38;;;;;;;61.70;28.00;;;;;;;-3.19;98.06;100302.06;103133;1255;138224;-74
2023/12/09 07:41:06;;;;;;;62.20;28.40;;;;;;;-3.16;98.36;100304.52;102938;1260;108166;-74
2023/12/09 07:43:33;;;;;;;59.80;27.30;;;;;;;-3.15;98.11;100289.91;102541;1257;1003592;-74
2023/12/09 07:46:02;;;;;;;66.30;29.50;;;;;;;-3.10;98.18;100293.95;102569;1251;1005132;-75
2023/12/09 07:48:29;;;;;;;69.50;30.50;;;;;;;-3.06;98.05;100292.66;103455;1252;107532;-75
2023/12/09 07:50:56;;;;;;;70.40;30.70;;;;;;;-3.05;97.97;100292.23;103310;1250;138502;-75
2023/12/09 07:53:23;;;;;;;68.80;30.00;;;;;;;-3.08;98.08;100290.91;103409;1250;107719;-76
2023/12/09 07:55:53;;;;;;;64.30;28.60;;;;;;;-3.10;97.81;100293.25;103465;1257;106800;-76
2023/12/09 07:58:26;;;;;;;63.00;28.50;;;;;;;-3.13;98.30;100293.89;103491;1254;95102;-75
2023/12/09 08:00:53;;;;;;;72.60;30.10;;;;;;;-3.12;98.28;100295.25;103409;1251;107984;-75
2023/12/09 08:03:20;;;;;;;68.80;29.60;;;;;;;-3.10;98.54;100304.84;101874;1251;1015537;-74
2023/12/09 08:05:47;;;;;;;75.20;32.00;;;;;;;-3.08;98.40;100296.02;102686;1252;1003301;-75
2023/12/09 08:08:14;;;;;;;75.80;32.90;;;;;;;-3.08;98.33;100298.23;102578;1255;1003042;-75
2023/12/09 08:10:41;;;;;;;79.70;32.20;;;;;;;-3.13;98.96;100297.80;102675;1251;1002538;-75
2023/12/09 08:13:08;;;;;;;79.00;31.00;;;;;;;-3.16;99.08;100289.21;103317;1257;106707;-75
2023/12/09 08:15:35;;;;;;;68.60;31.20;;;;;;;-3.18;99.02;100292.08;103388;1251;138659;-76
2023/12/09 08:18:03;;;;;;;73.80;31.00;;;;;;;-3.15;98.65;100284.13;103516;1251;108530;-75
2023/12/09 08:20:30;;;;;;;81.40;33.90;;;;;;;-3.10;98.89;100288.16;103302;1256;138299;-75
2023/12/09 08:22:57;;;;;;;78.00;34.60;;;;;;;-3.07;99.17;100280.23;103425;1254;95114;-75
2023/12/09 08:25:24;;;;;;;85.90;36.80;;;;;;;-3.04;99.06;100275.56;102622;1256;1003001;-75
2023/12/09 08:27:51;;;;;;;78.80;32.90;;;;;;;-3.06;98.72;100276.00;103313;1251;137705;-75
2023/12/09 08:30:18;;;;;;;78.90;31.80;;;;;;;-3.06;98.76;100272.95;103351;1251;109111;-75
2023/12/09 08:32:45;;;;;;;74.80;31.70;;;;;;;-3.04;99.09;100277.43;103311;1254;138891;-75
2023/12/09 08:35:13;;;;;;;77.20;33.60;;;;;;;-3.02;99.15;100276.79;103501;1254;96278;-75
2023/12/09 08:37:40;;;;;;;86.70;35.20;;;;;;;-2.98;98.92;100271.09;103396;1255;108090;-75
2023/12/09 08:40:12;;;;;;;89.90;37.70;;;;;;;-2.96;98.95;100273.17;103303;1251;138073;-75
2023/12/09 08:42:40;;;;;;;91.60;37.30;;;;;;;-2.94;99.04;100283.76;102710;1251;1003213;-76
2023/12/09 08:45:12;;;;;;;87.80;36.20;;;;;;;-2.96;98.83;100274.71;102556;1257;1003859;-74
2023/12/09 08:47:40;;;;;;;85.20;34.90;;;;;;;-2.96;98.93;100270.96;103123;1251;1002693;-75
2023/12/09 08:50:12;;;;;;;91.90;37.00;;;;;;;-2.95;98.97;100274.39;103377;1251;138661;-75
2023/12/09 08:52:42;;;;;;;91.60;35.50;;;;;;;-2.94;99.42;100278.16;102700;1251;1003044;-74
2023/12/09 08:55:10;;;;;;;87.30;34.70;;;;;;;-2.92;99.47;100275.13;103451;1251;108604;-74
2023/12/09 08:57:39;;;;;;;79.70;34.80;;;;;;;-2.92;99.29;100271.39;102454;1257;1003185;-75
2023/12/09 09:00:11;;;;;;;88.80;35.10;;;;;;;-2.89;99.48;100261.41;103486;1255;95646;-74
2023/12/09 09:02:39;;;;;;;83.90;33.30;;;;;;;-2.86;99.30;100253.66;104730;1251;138118;-74
2023/12/09 09:05:07;;;;;;;88.20;38.40;;;;;;;-2.79;99.25;100252.11;104086;1251;1002313;-74
2023/12/09 09:07:38;;;;;;;91.20;38.20;;;;;;;-2.76;99.09;100247.09;103749;1251;108784;-74
2023/12/09 09:10:07;;;;;;;89.90;39.30;;;;;;;-2.71;98.98;100243.42;103295;1254;138027;-73
2023/12/09 09:12:34;;;;;;;89.50;37.40;;;;;;;-2.69;98.71;100235.64;102798;1255;1004019;-75
2023/12/09 09:15:01;;;;;;;85.90;35.00;;;;;;;-2.67;98.58;100232.82;103949;1251;139329;-74
2023/12/09 09:17:34;;;;;;;82.00;34.60;;;;;;;-2.62;98.88;100229.52;103648;1253;96508;-73
2023/12/09 09:20:02;;;;;;;86.50;34.90;;;;;;;-2.59;98.79;100223.09;103442;1254;138700;-74
2023/12/09 09:22:30;;;;;;;84.70;37.30;;;;;;;-2.54;98.86;100218.59;103427;1254;107765;-73
2023/12/09 09:24:58;;;;;;;86.20;36.90;;;;;;;-2.51;98.55;100217.81;102686;1256;1003321;-74
2023/12/09 09:27:25;;;;;;;92.20;38.70;;;;;;;-2.47;98.32;100220.29;102598;1251;1016014;-75
2023/12/09 09:29:52;;;;;;;94.50;36.80;;;;;;;-2.45;98.60;100215.05;103503;1259;96552;-74
2023/12/09 09:32:20;;;;;;;82.90;35.30;;;;;;;-2.44;98.30;100210.64;103282;1257;138370;-76
2023/12/09 09:34:48;;;;;;;81.00;34.70;;;;;;;-2.42;98.19;100209.30;103469;1251;108254;-74
2023/12/09 09:37:16;;;;;;;77.60;34.00;;;;;;;-2.38;98.30;100208.34;103401;1251;97025;-74
2023/12/09 09:39:42;;;;;;;87.00;35.50;;;;;;;-2.34;98.16;100205.88;102597;1253;1002928;-74
2023/12/09 09:42:22;;;;;;;88.60;38.00;;;;;;;-2.29;98.23;100202.41;104706;1251;94931;-75
2023/12/09 09:45:06;;;;;;;89.60;38.00;;;;;;;-2.25;98.15;100197.19;103549;1254;137607;-74
2023/12/09 09:47:36;;;;;;;91.00;37.10;;;;;;;-2.23;98.07;100189.73;102902;1254;1002681;-75
2023/12/09 09:50:05;;;;;;;82.80;35.00;;;;;;;-2.21;98.02;100189.94;103830;1251;138774;-74
2023/12/09 09:52:35;;;;;;;80.40;33.60;;;;;;;-2.19;97.90;100188.27;103444;1251;106971;-79
2023/12/09 09:55:03;;;;;;;82.00;34.20;;;;;;;-2.16;97.86;100195.14;102824;1254;1002818;-76
2023/12/09 09:57:30;;;;;;;88.10;37.10;;;;;;;-2.10;97.78;100184.88;103670;1251;140144;-75
2023/12/09 09:59:58;;;;;;;84.90;37.30;;;;;;;-2.07;97.64;100182.37;102374;1254;1003233;-74
2023/12/09 10:02:28;;;;;;;91.00;38.60;;;;;;;-2.04;97.75;100179.02;103398;1251;139140;-75
2023/12/09 10:04:56;;;;;;;81.40;34.90;;;;;;;-2.04;97.47;100176.11;102682;1254;1002699;-74
2023/12/09 10:07:23;;;;;;;87.00;35.90;;;;;;;-2.04;97.44;100174.41;103497;1253;96355;-75
2023/12/09 10:09:51;;;;;;;82.70;35.50;;;;;;;-2.02;97.28;100171.04;102598;1251;1002746;-72
2023/12/09 10:12:18;;;;;;;79.20;33.90;;;;;;;-2.00;97.51;100174.98;102685;1251;1003219;-71
2023/12/09 10:14:46;;;;;;;81.40;36.50;;;;;;;-1.96;97.51;100168.77;103383;1251;139966;-72
2023/12/09 10:17:18;;;;;;;80.50;36.60;;;;;;;-1.94;97.39;100164.05;103458;1251;107145;-74
2023/12/09 10:19:45;;;;;;;88.60;38.50;;;;;;;-1.92;97.31;100157.59;103845;1251;96480;-73
2023/12/09 10:22:14;;;;;;;85.90;37.20;;;;;;;-1.92;97.23;100154.19;103306;1251;137790;-77
2023/12/09 10:24:41;;;;;;;83.30;35.70;;;;;;;-1.91;97.35;100160.16;103368;1254;108606;-76
2023/12/09 10:27:17;;;;;;;82.80;35.80;;;;;;;-1.91;97.30;100162.20;103100;1254;138741;-77
2023/12/09 10:29:43;;;;;;;78.30;35.10;;;;;;;-1.94;97.21;100149.88;103037;1253;1003042;-73
2023/12/09 10:32:13;;;;;;;82.80;34.90;;;;;;;-1.91;97.32;100145.33;104179;1253;139235;-76
2023/12/09 10:34:40;;;;;;;81.00;36.40;;;;;;;-1.86;97.28;100149.50;102765;1251;1002948;-77
2023/12/09 10:37:10;;;;;;;89.10;38.20;;;;;;;-1.83;97.14;100146.64;103502;1251;108009;-74
2023/12/09 10:39:37;;;;;;;84.80;36.90;;;;;;;-1.83;97.27;100151.94;103451;1251;137822;-74
2023/12/09 10:42:06;;;;;;;88.50;36.80;;;;;;;-1.83;97.17;100145.80;104012;1251;107993;-75
2023/12/09 10:44:33;;;;;;;82.30;36.60;;;;;;;-1.83;97.07;100143.40;103959;1251;138562;-71
2023/12/09 10:47:00;;;;;;;85.90;37.10;;;;;;;-1.82;97.13;100140.69;103399;1254;108927;-77
2023/12/09 10:49:27;;;;;;;82.90;35.60;;;;;;;-1.83;97.24;100141.02;103525;1254;106897;-74
2023/12/09 10:51:57;;;;;;;82.10;35.40;;;;;;;-1.83;97.29;100133.01;103580;1254;138403;-74
2023/12/09 10:54:24;;;;;;;88.30;36.40;;;;;;;-1.85;97.34;100130.43;102729;1254;1003048;-73